createdAt,value
2022-08-07T00:02:35.409Z,75.63
2022-08-07T00:04:06.146Z,75.50
2022-08-07T00:06:36.724Z,75.53
2022-08-07T00:09:16.667Z,75.67
2022-08-07T00:11:54.231Z,75.69
2022-08-07T00:14:25.565Z,75.48
2022-08-07T00:16:58.835Z,75.82
2022-08-07T00:19:26.171Z,75.97
2022-08-07T00:22:12.475Z,75.78
2022-08-07T00:24:51.376Z,75.95
2022-08-07T00:27:18.048Z,76.08
2022-08-07T00:29:49.073Z,76.30
2022-08-07T00:32:16.825Z,75.96
2022-08-07T00:34:43.293Z,75.99
2022-08-07T00:37:09.887Z,76.04
2022-08-07T00:39:45.209Z,76.42
2022-08-07T00:42:25.447Z,76.39
2022-08-07T00:44:55.798Z,76.72
2022-08-07T00:48:07.916Z,76.89
2022-08-07T00:50:19.128Z,76.85
2022-08-07T00:52:48.242Z,76.96
2022-08-07T00:55:17.244Z,77.20
2022-08-07T00:57:55.231Z,77.18
2022-08-07T01:00:23.322Z,77.34
2022-08-07T01:02:50.884Z,77.16
2022-08-07T01:05:19.948Z,77.76
2022-08-07T01:07:46.694Z,77.85
2022-08-07T01:10:18.298Z,77.38
2022-08-07T01:12:54.059Z,77.43
2022-08-07T01:15:35.986Z,77.87
2022-08-07T01:18:10.312Z,77.83
2022-08-07T01:20:44.914Z,77.59
2022-08-07T01:23:36.407Z,77.93
2022-08-07T01:26:07.870Z,78.09
2022-08-07T01:28:40.078Z,77.95
2022-08-07T01:31:15.433Z,78.42
2022-08-07T01:33:55.429Z,78.43
2022-08-07T01:36:33.334Z,78.30
2022-08-07T01:39:04.165Z,78.27
2022-08-07T01:41:38.991Z,77.82
2022-08-07T01:44:07.825Z,78.39
2022-08-07T01:46:34.721Z,79.07
2022-08-07T01:49:02.455Z,79.03
2022-08-07T01:52:01.874Z,79.06
2022-08-07T01:54:37.082Z,78.84
2022-08-07T01:57:24.140Z,79.13
2022-08-07T02:00:02.102Z,79.41
2022-08-07T02:03:19.248Z,78.75
2022-08-07T02:05:59.864Z,79.02
2022-08-07T02:08:29.558Z,78.58
2022-08-07T02:10:59.580Z,79.24
2022-08-07T02:13:56.797Z,78.96
2022-08-07T02:16:28.727Z,79.21
2022-08-07T02:20:07.688Z,79.61
2022-08-07T02:21:58.505Z,79.43
2022-08-07T02:24:29.734Z,79.43
2022-08-07T02:27:01.242Z,79.12
2022-08-07T02:29:30.612Z,80.03
2022-08-07T02:31:59.093Z,79.87
2022-08-07T02:34:27.759Z,79.58
2022-08-07T02:36:56.451Z,79.49
2022-08-07T02:39:42.448Z,79.21
2022-08-07T02:42:14.731Z,80.01
2022-08-07T02:44:49.757Z,79.19
2022-08-07T02:47:19.235Z,79.64
2022-08-07T02:49:58.019Z,79.66
2022-08-07T02:52:41.390Z,80.35
2022-08-07T02:55:27.533Z,80.34
2022-08-07T02:57:59.117Z,80.54
2022-08-07T03:00:28.584Z,80.75
2022-08-07T03:02:57.825Z,81.10
2022-08-07T03:05:29.184Z,80.64
2022-08-07T03:08:07.214Z,81.21
2022-08-07T03:10:40.632Z,80.97
2022-08-07T03:13:10.579Z,81.31
2022-08-07T03:15:47.790Z,80.83
2022-08-07T03:18:24.448Z,81.35
2022-08-07T03:21:01.692Z,81.12
2022-08-07T03:23:33.804Z,81.05
2022-08-07T03:26:23.425Z,81.30
2022-08-07T03:28:51.617Z,81.23
2022-08-07T03:31:23.730Z,80.96
2022-08-07T03:33:56.217Z,81.54
2022-08-07T03:36:25.809Z,81.14
2022-08-07T03:38:57.509Z,81.93
2022-08-07T03:41:42.273Z,81.41
2022-08-07T03:44:12.292Z,81.69
2022-08-07T03:47:11.130Z,81.61
2022-08-07T03:49:30.469Z,81.43
2022-08-07T03:52:01.220Z,81.99
2022-08-07T03:54:36.508Z,82.22
2022-08-07T03:58:33.614Z,82.64
2022-08-07T04:00:04.255Z,82.14
2022-08-07T04:02:31.174Z,82.49
2022-08-07T04:04:58.345Z,81.75
2022-08-07T04:07:25.593Z,82.01
2022-08-07T04:10:03.972Z,81.56
2022-08-07T04:12:32.965Z,81.78
2022-08-07T04:15:02.332Z,81.73
2022-08-07T04:18:30.920Z,81.66
2022-08-07T04:20:19.508Z,81.07
2022-08-07T04:22:53.828Z,81.11
2022-08-07T04:25:31.462Z,81.41
2022-08-07T04:28:08.071Z,80.82
2022-08-07T04:30:55.148Z,80.39
2022-08-07T04:33:24.318Z,80.60
2022-08-07T04:35:55.460Z,79.93
2022-08-07T04:38:25.508Z,79.99
2022-08-07T04:40:56.905Z,79.82
2022-08-07T04:44:09.689Z,79.84
2022-08-07T04:46:34.241Z,79.33
2022-08-07T04:49:18.454Z,79.79
2022-08-07T04:51:55.759Z,80.11
2022-08-07T04:54:33.395Z,79.83
2022-08-07T04:58:16.206Z,78.62
2022-08-07T05:00:31.034Z,78.26
2022-08-07T05:03:49.873Z,75.65
2022-08-07T05:06:19.102Z,70.65
2022-08-07T05:09:09.607Z,66.91
2022-08-07T05:11:58.415Z,61.53
2022-08-07T05:14:53.755Z,59.22
2022-08-07T05:17:52.204Z,56.86
2022-08-07T05:20:16.927Z,54.80
2022-08-07T05:22:47.881Z,53.71
2022-08-07T05:25:25.615Z,52.70
2022-08-07T05:28:20.435Z,51.26
2022-08-07T05:30:52.473Z,50.23
2022-08-07T05:33:21.355Z,49.75
2022-08-07T05:35:51.759Z,49.57
2022-08-07T05:39:01.106Z,48.58
2022-08-07T05:41:14.456Z,48.29
2022-08-07T05:44:08.596Z,48.15
2022-08-07T05:46:37.327Z,47.99
2022-08-07T05:49:12.115Z,47.98
2022-08-07T05:51:40.744Z,47.62
2022-08-07T05:54:30.185Z,47.58
2022-08-07T05:56:57.248Z,47.45
2022-08-07T05:59:27.500Z,46.89
2022-08-07T06:01:57.155Z,47.36
2022-08-07T06:04:26.359Z,47.31
2022-08-07T06:07:03.803Z,47.80
2022-08-07T06:10:04.230Z,46.05
2022-08-07T06:12:21.044Z,44.71
2022-08-07T06:14:58.739Z,45.44
2022-08-07T06:17:37.466Z,45.41
2022-08-07T06:20:05.647Z,46.04
2022-08-07T06:22:38.913Z,45.38
2022-08-07T06:25:10.132Z,44.77
2022-08-07T06:28:00.031Z,44.71
2022-08-07T06:30:35.551Z,44.80
2022-08-07T06:33:05.072Z,44.91
2022-08-07T06:35:45.763Z,44.78
2022-08-07T06:38:23.986Z,45.02
2022-08-07T06:40:59.133Z,44.41
2022-08-07T06:43:39.189Z,45.65
2022-08-07T06:46:06.559Z,44.99
2022-08-07T06:48:42.040Z,44.70
2022-08-07T06:51:15.872Z,45.27
2022-08-07T06:55:27.357Z,46.07
2022-08-07T06:56:53.727Z,44.58
2022-08-07T07:00:12.466Z,44.94
2022-08-07T07:02:49.081Z,46.15
2022-08-07T07:05:09.388Z,45.90
2022-08-07T07:07:59.379Z,48.71
2022-08-07T07:10:33.328Z,49.85
2022-08-07T07:13:13.248Z,50.97
2022-08-07T07:15:51.505Z,52.38
2022-08-07T07:18:47.932Z,52.21
2022-08-07T07:21:40.389Z,52.70
2022-08-07T07:24:21.254Z,53.74
2022-08-07T07:26:54.138Z,53.83
2022-08-07T07:29:40.082Z,53.71
2022-08-07T07:32:16.642Z,54.27
2022-08-07T07:34:53.995Z,54.18
2022-08-07T07:37:49.513Z,54.31
2022-08-07T07:40:15.753Z,54.01
2022-08-07T07:42:50.893Z,53.87
2022-08-07T07:45:24.526Z,53.86
2022-08-07T07:48:11.023Z,55.01
2022-08-07T07:50:40.991Z,53.91
2022-08-07T07:53:13.513Z,53.69
2022-08-07T07:55:57.884Z,54.01
2022-08-07T07:58:40.619Z,53.91
2022-08-07T08:02:03.151Z,54.01
2022-08-07T08:04:06.507Z,54.86
2022-08-07T08:06:40.698Z,53.12
2022-08-07T08:09:20.634Z,53.03
2022-08-07T08:12:02.506Z,53.52
2022-08-07T08:14:38.955Z,53.65
2022-08-07T08:17:56.707Z,53.98
2022-08-07T08:20:18.168Z,53.44
2022-08-07T08:23:10.211Z,52.57
2022-08-07T08:26:04.723Z,52.63
2022-08-07T08:28:39.238Z,51.65
2022-08-07T08:31:22.835Z,51.79
2022-08-07T08:34:06.191Z,51.62
2022-08-07T08:36:37.264Z,51.33
2022-08-07T08:39:08.620Z,50.83
2022-08-07T08:41:58.682Z,50.90
2022-08-07T08:44:38.339Z,50.62
2022-08-07T08:47:51.945Z,50.75
2022-08-07T08:50:34.984Z,51.63
2022-08-07T08:53:26.532Z,50.50
2022-08-07T08:56:08.377Z,49.85
2022-08-07T08:59:12.794Z,50.34
2022-08-07T09:01:51.920Z,49.74
2022-08-07T09:04:44.063Z,49.85
2022-08-07T09:07:23.052Z,50.06
2022-08-07T09:10:11.627Z,49.58
2022-08-07T09:13:09.550Z,49.19
2022-08-07T09:16:24.603Z,48.54
2022-08-07T09:19:51.378Z,47.94
2022-08-07T09:24:30.927Z,47.59
2022-08-07T09:25:54.549Z,46.06
2022-08-07T09:30:06.491Z,46.32
2022-08-07T09:31:49.256Z,46.41
2022-08-07T09:34:26.317Z,47.18
2022-08-07T09:37:20.550Z,47.11
2022-08-07T09:40:30.358Z,46.26
2022-08-07T09:43:09.922Z,46.64
2022-08-07T09:47:51.540Z,47.64
2022-08-07T09:50:01.161Z,46.26
2022-08-07T09:52:34.111Z,45.75
2022-08-07T09:55:37.013Z,44.77
2022-08-07T09:58:32.417Z,45.65
2022-08-07T10:01:51.173Z,45.85
2022-08-07T10:04:32.764Z,46.73
2022-08-07T10:07:53.377Z,45.83
2022-08-07T10:11:00.258Z,45.76
2022-08-07T10:13:55.099Z,47.05
2022-08-07T10:16:50.614Z,44.85
2022-08-07T10:19:25.785Z,46.01
2022-08-07T10:22:32.107Z,44.76
2022-08-07T10:25:24.256Z,44.77
2022-08-07T10:28:26.291Z,44.84
2022-08-07T10:31:11.436Z,44.64
2022-08-07T10:34:06.969Z,45.02
2022-08-07T10:36:59.258Z,44.12
2022-08-07T10:39:41.740Z,43.18
2022-08-07T10:42:36.902Z,43.15
2022-08-07T10:45:19.393Z,43.19
2022-08-07T10:48:05.193Z,43.82
2022-08-07T10:50:49.874Z,44.28
2022-08-07T10:53:43.922Z,43.74
2022-08-07T10:56:31.464Z,43.48
2022-08-07T10:59:22.443Z,43.70
2022-08-07T11:02:12.482Z,43.64
2022-08-07T11:05:49.114Z,41.99
2022-08-07T11:08:32.919Z,41.95
2022-08-07T11:11:03.746Z,42.23
2022-08-07T11:14:45.031Z,44.03
2022-08-07T11:17:07.112Z,43.13
2022-08-07T11:19:43.708Z,42.45
2022-08-07T11:22:37.150Z,42.55
2022-08-07T11:25:36.177Z,44.00
2022-08-07T11:28:21.214Z,41.65
2022-08-07T11:30:51.291Z,42.38
2022-08-07T11:33:58.730Z,41.61
2022-08-07T11:36:30.995Z,42.27
2022-08-07T11:39:20.012Z,41.37
2022-08-07T11:42:18.747Z,41.02
2022-08-07T11:45:23.790Z,40.65
2022-08-07T11:48:29.475Z,40.91
2022-08-07T11:51:11.978Z,40.84
2022-08-07T11:54:25.376Z,41.68
2022-08-07T11:58:00.690Z,41.79
2022-08-07T12:00:27.609Z,41.45
2022-08-07T12:03:04.766Z,41.38
2022-08-07T12:05:54.098Z,42.37
2022-08-07T12:08:43.035Z,40.96
2022-08-07T12:11:32.274Z,39.88
2022-08-07T12:14:13.372Z,40.17
2022-08-07T12:16:53.944Z,40.66
2022-08-07T12:20:02.554Z,40.74
2022-08-07T12:22:58.886Z,40.56
2022-08-07T12:26:02.853Z,38.62
2022-08-07T12:29:04.230Z,38.19
2022-08-07T12:31:53.209Z,39.16
2022-08-07T12:34:35.623Z,39.04
2022-08-07T12:37:16.909Z,35.91
2022-08-07T12:39:54.895Z,37.62
2022-08-07T12:42:28.577Z,39.08
2022-08-07T12:45:06.470Z,38.08
2022-08-07T12:47:50.236Z,38.35
2022-08-07T12:50:34.044Z,39.07
2022-08-07T12:53:22.115Z,39.05
2022-08-07T12:56:12.317Z,38.83
2022-08-07T12:58:46.761Z,37.01
2022-08-07T13:01:28.221Z,35.30
2022-08-07T13:04:34.077Z,36.25
2022-08-07T13:08:14.139Z,37.28
2022-08-07T13:10:39.438Z,38.56
2022-08-07T13:13:47.541Z,36.39
2022-08-07T13:16:27.051Z,35.97
2022-08-07T13:19:35.264Z,34.45
2022-08-07T13:22:27.586Z,34.52
2022-08-07T13:25:00.532Z,35.28
2022-08-07T13:28:10.861Z,35.22
2022-08-07T13:30:41.301Z,35.59
2022-08-07T13:34:34.653Z,34.86
2022-08-07T13:36:27.061Z,35.31
2022-08-07T13:39:02.436Z,34.78
2022-08-07T13:41:49.550Z,34.91
2022-08-07T13:44:40.575Z,35.62
2022-08-07T13:47:15.737Z,35.12
2022-08-07T13:50:32.600Z,35.82
2022-08-07T13:52:41.411Z,37.08
2022-08-07T13:55:25.527Z,35.96
2022-08-07T13:58:27.995Z,36.10
2022-08-07T14:01:08.809Z,35.76
2022-08-07T14:04:06.668Z,35.86
2022-08-07T14:06:35.969Z,35.25
2022-08-07T14:09:06.066Z,36.36
2022-08-07T14:11:53.545Z,36.08
2022-08-07T14:14:39.008Z,36.13
2022-08-07T14:17:13.195Z,35.73
2022-08-07T14:20:43.596Z,34.85
2022-08-07T14:22:48.765Z,35.21
2022-08-07T14:25:17.639Z,35.07
2022-08-07T14:28:11.359Z,34.28
2022-08-07T14:30:40.563Z,34.14
2022-08-07T14:33:08.449Z,34.53
2022-08-07T14:35:44.882Z,34.61
2022-08-07T14:38:30.777Z,35.16
2022-08-07T14:41:14.593Z,35.49
2022-08-07T14:43:57.413Z,34.70
2022-08-07T14:46:36.007Z,34.84
2022-08-07T14:49:55.844Z,35.41
2022-08-07T14:52:03.730Z,34.51
2022-08-07T14:54:42.023Z,34.24
2022-08-07T14:57:19.366Z,35.05
2022-08-07T15:00:06.620Z,37.15
2022-08-07T15:02:35.178Z,36.35
2022-08-07T15:05:19.614Z,38.00
2022-08-07T15:13:36.819Z,38.17
2022-08-07T15:18:57.525Z,38.62
2022-08-07T15:21:44.732Z,38.90
2022-08-07T15:27:21.717Z,38.65
2022-08-07T15:30:10.103Z,38.87
2022-08-07T15:33:01.483Z,39.03
2022-08-07T15:36:00.721Z,39.23
2022-08-07T15:38:30.706Z,37.59
2022-08-07T15:41:23.806Z,38.62
2022-08-07T15:44:01.096Z,39.11
2022-08-07T15:46:32.460Z,39.33
2022-08-07T15:49:13.141Z,39.51
2022-08-07T15:54:34.223Z,40.46
2022-08-07T15:59:39.140Z,40.80
2022-08-07T16:02:15.054Z,40.62
2022-08-07T16:04:43.980Z,41.00
2022-08-07T16:08:29.004Z,41.36
2022-08-07T16:10:21.829Z,41.70
2022-08-07T16:13:39.503Z,42.01
2022-08-07T16:16:49.684Z,42.63
2022-08-07T16:19:42.613Z,42.89
2022-08-07T16:22:54.927Z,42.45
2022-08-07T16:26:04.013Z,42.74
2022-08-07T16:29:18.550Z,42.90
2022-08-07T16:31:57.882Z,43.64
2022-08-07T16:34:41.208Z,44.07
2022-08-07T16:38:05.740Z,44.04
2022-08-07T16:41:01.518Z,44.12
2022-08-07T16:44:03.674Z,44.36
2022-08-07T16:47:06.625Z,44.00
2022-08-07T16:50:20.583Z,44.66
2022-08-07T16:54:02.531Z,44.49
2022-08-07T16:56:17.949Z,45.02
2022-08-07T16:59:17.287Z,44.78
2022-08-07T17:02:05.189Z,45.38
2022-08-07T17:04:51.064Z,46.17
2022-08-07T17:07:59.471Z,46.39
2022-08-07T17:10:38.447Z,46.44
2022-08-07T17:13:24.014Z,47.63
2022-08-07T17:16:17.228Z,46.52
2022-08-07T17:19:04.799Z,46.68
2022-08-07T17:21:51.219Z,46.78
2022-08-07T17:24:37.390Z,47.09
2022-08-07T17:27:19.906Z,47.23
2022-08-07T17:30:30.416Z,47.45
2022-08-07T17:34:10.123Z,47.63
2022-08-07T17:36:11.993Z,47.51
2022-08-07T17:38:47.664Z,48.25
2022-08-07T17:42:03.955Z,47.94
2022-08-07T17:44:35.049Z,47.42
2022-08-07T17:47:38.740Z,48.37
2022-08-07T17:50:19.284Z,48.26
2022-08-07T17:53:00.496Z,47.87
2022-08-07T17:56:01.365Z,48.34
2022-08-07T17:58:33.026Z,48.32
2022-08-07T18:01:21.040Z,48.34
2022-08-07T18:04:16.236Z,48.61
2022-08-07T18:07:20.081Z,48.75
2022-08-07T18:10:07.562Z,49.35
2022-08-07T18:12:59.786Z,48.71
2022-08-07T18:15:41.387Z,49.67
2022-08-07T18:19:02.369Z,49.85
2022-08-07T18:21:51.773Z,49.74
2022-08-07T18:24:35.678Z,49.89
2022-08-07T18:27:38.906Z,50.04
2022-08-07T18:30:31.279Z,50.51
2022-08-07T18:33:15.219Z,50.54
2022-08-07T18:36:10.230Z,50.96
2022-08-07T18:38:59.082Z,51.08
2022-08-07T18:42:01.529Z,51.23
2022-08-07T18:45:43.415Z,51.61
2022-08-07T18:47:45.020Z,52.54
2022-08-07T18:50:39.188Z,52.46
2022-08-07T18:53:39.387Z,52.39
2022-08-07T18:56:35.601Z,52.84
2022-08-07T18:59:47.276Z,53.77
2022-08-07T19:02:46.496Z,53.54
2022-08-07T19:06:01.964Z,53.68
2022-08-07T19:08:18.877Z,54.40
2022-08-07T19:11:36.559Z,54.14
2022-08-07T19:14:11.582Z,54.53
2022-08-07T19:17:05.483Z,54.75
2022-08-07T19:19:45.398Z,54.72
2022-08-07T19:22:30.788Z,55.30
2022-08-07T19:25:06.345Z,55.67
2022-08-07T19:28:57.686Z,55.76
2022-08-07T19:30:57.727Z,56.18
2022-08-07T19:33:15.813Z,56.31
2022-08-07T19:35:46.933Z,56.73
2022-08-07T19:38:17.832Z,57.29
2022-08-07T19:40:49.626Z,57.42
2022-08-07T19:43:44.236Z,56.46
2022-08-07T19:46:12.215Z,57.50
2022-08-07T19:48:53.636Z,57.44
2022-08-07T19:51:50.517Z,57.86
2022-08-07T19:54:31.354Z,58.19
2022-08-07T19:58:03.204Z,57.91
2022-08-07T19:59:53.158Z,58.37
2022-08-07T20:02:29.204Z,58.65
2022-08-07T20:04:57.983Z,58.73
2022-08-07T20:07:46.204Z,59.55
2022-08-07T20:10:36.069Z,59.37
2022-08-07T20:13:23.106Z,59.38
2022-08-07T20:15:53.721Z,59.62
2022-08-07T20:18:32.794Z,60.16
2022-08-07T20:21:20.954Z,60.39
2022-08-07T20:24:00.425Z,60.38
2022-08-07T20:26:38.737Z,60.69
2022-08-07T20:29:48.934Z,61.61
2022-08-07T20:32:05.405Z,61.71
2022-08-07T20:34:50.349Z,61.24
2022-08-07T20:37:23.294Z,61.94
2022-08-07T20:40:04.047Z,62.46
2022-08-07T20:42:38.009Z,63.06
2022-08-07T20:45:33.509Z,63.14
2022-08-07T20:47:58.320Z,63.01
2022-08-07T20:50:30.297Z,63.30
2022-08-07T20:52:57.687Z,63.68
2022-08-07T20:55:24.919Z,63.85
2022-08-07T20:58:03.369Z,63.41
2022-08-07T21:00:46.108Z,64.59
2022-08-07T21:03:23.017Z,64.73
2022-08-07T21:06:03.507Z,64.68
2022-08-07T21:08:43.384Z,65.72
2022-08-07T21:11:17.407Z,65.73
2022-08-07T21:14:29.809Z,65.89
2022-08-07T21:18:01.204Z,65.40
2022-08-07T21:19:51.497Z,66.58
2022-08-07T21:22:30.720Z,66.79
2022-08-07T21:25:22.584Z,66.76
2022-08-07T21:28:07.840Z,66.34
2022-08-07T21:30:49.750Z,66.55
2022-08-07T21:33:47.644Z,67.00
2022-08-07T21:36:37.693Z,67.39
2022-08-07T21:39:45.272Z,67.12
2022-08-07T21:42:42.477Z,68.15
2022-08-07T21:45:42.154Z,68.85
2022-08-07T21:48:27.944Z,69.14
2022-08-07T21:51:05.049Z,69.19
2022-08-07T21:53:46.583Z,69.85
2022-08-07T21:56:42.420Z,69.28
2022-08-07T21:59:29.982Z,69.46
2022-08-07T22:02:12.899Z,69.73
2022-08-07T22:04:52.654Z,69.71
2022-08-07T22:07:31.616Z,70.21
2022-08-07T22:10:11.729Z,69.97
2022-08-07T22:12:40.897Z,70.03
2022-08-07T22:16:38.901Z,69.87
2022-08-07T22:18:22.075Z,71.25
2022-08-07T22:20:59.504Z,70.90
2022-08-07T22:24:09.295Z,70.33
2022-08-07T22:26:46.928Z,71.77
2022-08-07T22:29:47.426Z,71.77
2022-08-07T22:32:20.378Z,71.57
2022-08-07T22:34:54.795Z,71.98
2022-08-07T22:37:27.660Z,72.41
2022-08-07T22:40:40.028Z,72.42
2022-08-07T22:43:18.083Z,72.21
2022-08-07T22:47:02.924Z,72.56
2022-08-07T22:49:18.824Z,72.41
2022-08-07T22:52:19.590Z,73.26
2022-08-07T22:55:38.419Z,72.84
2022-08-07T22:58:41.619Z,73.49
2022-08-07T23:01:30.476Z,72.49
2022-08-07T23:04:31.687Z,73.12
2022-08-07T23:07:33.600Z,73.02
2022-08-07T23:10:38.101Z,73.78
2022-08-07T23:13:16.428Z,73.95
2022-08-07T23:16:05.401Z,74.08
2022-08-07T23:18:42.943Z,74.75
2022-08-07T23:21:36.592Z,74.38
2022-08-07T23:24:38.782Z,74.53
2022-08-07T23:28:20.530Z,75.15
2022-08-07T23:31:07.110Z,75.12
2022-08-07T23:34:36.301Z,74.24
2022-08-07T23:37:17.900Z,73.81
2022-08-07T23:40:02.821Z,74.07
2022-08-07T23:42:43.502Z,74.44
2022-08-07T23:45:50.020Z,74.99
2022-08-07T23:48:24.984Z,75.29
2022-08-07T23:51:02.284Z,75.31
